AIA weather

Alliance Municipal Airport
Alliance, Nebraska, United States

Public forecast

Using degrees Fahrenheit for public forecast. Weather courtesy of forecast.io.

Current aviation weather report (METAR) for Alliance Municipal Airport

Retrieved 2020/06/04 02:53 UTC (1 hour ago):

KAIA 040253Z AUTO 32006KT 10SM CLR 23/08 A2991 RMK AO2 SLP084 T02280078 53004

Aviation forecast (TAF) for Alliance Municipal Airport

Retrieved 2020-06-04 00:22 UTC (4 hours ago):

TAF KAIA 032320Z 0400/0424 33010G20KT P6SM VCSH SCT100 FM040300 16006KT P6SM FEW200 FM040600 VRB06KT P6SM FEW250